createdAt,value
2018-06-21T00:00:17.067Z,0.00
2018-06-21T00:01:17.275Z,0.00
2018-06-21T00:02:17.487Z,0.00
2018-06-21T00:03:17.686Z,0.00
2018-06-21T00:04:17.901Z,0.00
2018-06-21T00:05:18.111Z,0.00
2018-06-21T00:06:18.304Z,0.00
2018-06-21T00:07:18.499Z,0.00
2018-06-21T00:08:18.699Z,0.00
2018-06-21T00:09:18.908Z,0.00
2018-06-21T00:10:19.104Z,0.00
2018-06-21T00:11:19.292Z,0.00
2018-06-21T00:12:19.495Z,0.00
2018-06-21T00:13:19.691Z,0.00
2018-06-21T00:14:19.899Z,0.00
2018-06-21T00:15:20.115Z,0.00
2018-06-21T00:16:20.323Z,0.00
2018-06-21T00:17:20.515Z,0.00
2018-06-21T00:18:20.701Z,0.00
2018-06-21T00:20:53.114Z,0.00
2018-06-21T00:21:53.043Z,0.00
2018-06-21T00:22:53.221Z,0.00
2018-06-21T00:23:53.436Z,0.00
2018-06-21T00:24:53.635Z,0.00
2018-06-21T00:25:53.848Z,0.00
2018-06-21T00:26:54.047Z,0.00
2018-06-21T00:27:54.237Z,0.00
2018-06-21T00:28:54.434Z,0.00
2018-06-21T00:29:54.633Z,0.00
2018-06-21T00:30:54.844Z,0.00
2018-06-21T00:31:55.060Z,0.00
2018-06-21T00:32:55.247Z,0.00
2018-06-21T00:33:55.439Z,0.00
2018-06-21T00:34:55.632Z,0.00
2018-06-21T00:35:55.823Z,0.00
2018-06-21T00:36:56.032Z,0.00
2018-06-21T00:37:56.225Z,0.00
2018-06-21T00:38:56.410Z,0.00
2018-06-21T00:39:56.597Z,0.00
2018-06-21T00:40:56.801Z,0.00
2018-06-21T00:41:56.994Z,0.00
2018-06-21T00:42:57.187Z,0.00
2018-06-21T00:43:57.407Z,0.00
2018-06-21T00:44:57.593Z,0.00
2018-06-21T00:45:57.812Z,0.00
2018-06-21T00:48:30.177Z,0.00
2018-06-21T00:49:30.354Z,0.00
2018-06-21T00:50:30.557Z,0.00
2018-06-21T00:51:30.763Z,0.00
2018-06-21T00:52:31.004Z,0.00
2018-06-21T00:53:31.166Z,0.00
2018-06-21T00:54:31.371Z,0.00
2018-06-21T00:55:31.551Z,0.00
2018-06-21T00:56:31.767Z,0.00
2018-06-21T00:57:31.963Z,0.00
2018-06-21T00:58:32.167Z,0.00
2018-06-21T00:59:32.369Z,0.00
2018-06-21T01:00:32.570Z,0.00
2018-06-21T01:01:32.763Z,0.00
2018-06-21T01:02:32.972Z,0.00
2018-06-21T01:03:33.168Z,0.00
2018-06-21T01:04:33.376Z,0.00
2018-06-21T01:05:33.584Z,0.00
2018-06-21T01:06:33.777Z,0.00
2018-06-21T01:07:33.971Z,0.00
2018-06-21T01:08:34.183Z,0.00
2018-06-21T01:09:34.393Z,0.00
2018-06-21T01:10:34.586Z,0.00
2018-06-21T01:11:34.791Z,0.00
2018-06-21T01:12:34.980Z,0.00
2018-06-21T01:13:35.166Z,0.00
2018-06-21T01:14:35.355Z,0.00
2018-06-21T01:15:35.547Z,0.00
2018-06-21T01:16:35.749Z,0.00
2018-06-21T01:17:35.941Z,0.00
2018-06-21T01:18:36.133Z,0.00
2018-06-21T01:19:36.347Z,0.00
2018-06-21T01:20:36.533Z,0.00
2018-06-21T01:21:36.732Z,0.00
2018-06-21T01:22:36.935Z,0.00
2018-06-21T01:25:09.053Z,0.00
2018-06-21T01:26:09.230Z,0.00
2018-06-21T01:27:09.441Z,0.00
2018-06-21T01:28:09.633Z,0.00
2018-06-21T01:29:09.843Z,0.00
2018-06-21T01:30:10.061Z,0.00
2018-06-21T01:31:10.273Z,0.00
2018-06-21T01:32:10.482Z,0.00
2018-06-21T01:33:10.686Z,0.00
2018-06-21T01:34:10.869Z,0.00
2018-06-21T01:35:11.060Z,0.00
2018-06-21T01:36:11.252Z,0.00
2018-06-21T01:37:11.444Z,0.00
2018-06-21T01:38:11.653Z,0.00
2018-06-21T01:39:11.856Z,0.00
2018-06-21T01:40:12.053Z,0.00
2018-06-21T01:41:12.253Z,0.00
2018-06-21T01:42:12.454Z,0.00
2018-06-21T01:43:12.646Z,0.00
2018-06-21T01:44:12.846Z,0.00
2018-06-21T01:45:13.043Z,0.00
2018-06-21T01:46:13.231Z,0.00
2018-06-21T01:47:13.432Z,0.00
2018-06-21T01:48:13.631Z,0.00
2018-06-21T01:49:13.840Z,0.00
2018-06-21T01:50:14.041Z,0.00
2018-06-21T01:51:14.255Z,0.00
2018-06-21T01:52:14.441Z,0.00
2018-06-21T01:53:14.627Z,0.00
2018-06-21T01:54:14.845Z,0.00
2018-06-21T01:55:15.049Z,0.00
2018-06-21T01:56:15.249Z,0.00
2018-06-21T01:57:15.516Z,0.00
2018-06-21T01:58:15.586Z,0.00
2018-06-21T01:59:15.783Z,0.00
2018-06-21T02:00:15.994Z,0.00
2018-06-21T02:01:16.203Z,0.00
2018-06-21T02:02:16.397Z,0.00
2018-06-21T02:03:16.581Z,0.00
2018-06-21T02:04:16.785Z,0.00
2018-06-21T02:05:16.966Z,0.00
2018-06-21T02:06:17.155Z,0.00
2018-06-21T02:07:17.354Z,0.00
2018-06-21T02:08:17.559Z,0.00
2018-06-21T02:09:17.753Z,0.00
2018-06-21T02:10:17.953Z,0.00
2018-06-21T02:11:18.161Z,0.00
2018-06-21T02:12:18.347Z,0.00
2018-06-21T02:13:18.547Z,0.00
2018-06-21T02:14:18.732Z,0.00
2018-06-21T02:15:18.923Z,0.00
2018-06-21T02:16:19.131Z,0.00
2018-06-21T02:18:51.520Z,0.00
2018-06-21T02:19:51.442Z,0.00
2018-06-21T02:20:51.637Z,4.00
2018-06-21T02:21:51.840Z,4.00
2018-06-21T02:22:52.051Z,4.00
2018-06-21T02:23:52.239Z,0.00
2018-06-21T02:24:52.447Z,4.00
2018-06-21T02:25:52.644Z,4.00
2018-06-21T02:26:52.853Z,4.00
2018-06-21T02:27:53.063Z,0.00
2018-06-21T02:28:53.272Z,4.00
2018-06-21T02:29:53.484Z,4.00
2018-06-21T02:30:53.689Z,4.00
2018-06-21T02:31:53.885Z,4.00
2018-06-21T02:32:54.078Z,4.00
2018-06-21T02:33:54.263Z,8.00
2018-06-21T02:34:54.447Z,8.00
2018-06-21T02:35:54.630Z,8.00
2018-06-21T02:36:54.840Z,8.00
2018-06-21T02:37:55.022Z,12.00
2018-06-21T02:38:55.229Z,12.00
2018-06-21T02:39:55.433Z,16.00
2018-06-21T02:40:55.651Z,16.00
2018-06-21T02:41:55.843Z,20.00
2018-06-21T02:42:56.044Z,20.00
2018-06-21T02:43:56.257Z,24.00
2018-06-21T02:44:56.446Z,28.00
2018-06-21T02:45:56.652Z,28.00
2018-06-21T02:46:56.851Z,32.00
2018-06-21T02:47:57.044Z,40.00
2018-06-21T02:48:57.258Z,44.00
2018-06-21T02:49:57.464Z,48.00
2018-06-21T02:50:57.692Z,52.00
2018-06-21T02:51:57.896Z,64.00
2018-06-21T02:52:58.088Z,72.00
2018-06-21T02:53:58.285Z,76.00
2018-06-21T02:54:58.484Z,88.00
2018-06-21T02:55:58.669Z,100.00
2018-06-21T02:56:58.872Z,108.00
2018-06-21T02:57:59.082Z,120.00
2018-06-21T02:58:59.282Z,132.00
2018-06-21T02:59:59.491Z,144.00
2018-06-21T03:00:59.679Z,160.00
2018-06-21T03:01:59.869Z,176.00
2018-06-21T03:03:00.055Z,188.00
2018-06-21T03:04:00.315Z,208.00
2018-06-21T03:05:00.456Z,228.00
2018-06-21T03:06:00.666Z,244.00
2018-06-21T03:07:00.864Z,268.00
2018-06-21T03:08:01.044Z,288.00
2018-06-21T03:09:01.250Z,312.00
2018-06-21T03:10:01.437Z,332.00
2018-06-21T03:11:01.638Z,356.00
2018-06-21T03:12:01.830Z,388.00
2018-06-21T03:13:02.011Z,412.00
2018-06-21T03:14:02.195Z,436.00
2018-06-21T03:15:02.387Z,468.00
2018-06-21T03:16:02.596Z,500.00
2018-06-21T03:17:02.804Z,532.00
2018-06-21T03:18:02.992Z,568.00
2018-06-21T03:19:03.180Z,604.00
2018-06-21T03:20:03.382Z,644.00
2018-06-21T03:21:03.574Z,680.00
2018-06-21T03:22:03.817Z,724.00
2018-06-21T03:23:03.965Z,764.00
2018-06-21T03:24:04.176Z,812.00
2018-06-21T03:25:04.386Z,856.00
2018-06-21T03:26:04.575Z,908.00
2018-06-21T03:27:04.775Z,956.00
2018-06-21T03:28:04.981Z,1008.00
2018-06-21T03:29:05.165Z,1064.00
2018-06-21T03:30:05.364Z,1128.00
2018-06-21T03:31:05.608Z,1192.00
2018-06-21T03:32:05.757Z,1256.00
2018-06-21T03:33:05.963Z,1328.00
2018-06-21T03:34:06.176Z,1392.00
2018-06-21T03:35:06.365Z,1460.00
2018-06-21T03:36:06.558Z,1532.00
2018-06-21T03:37:06.769Z,1604.00
2018-06-21T03:38:06.972Z,1672.00
2018-06-21T03:39:07.185Z,1736.00
2018-06-21T03:40:07.400Z,1800.00
2018-06-21T03:41:07.580Z,1868.00
2018-06-21T03:42:07.766Z,1932.00
2018-06-21T03:43:07.956Z,1992.00
2018-06-21T03:44:08.165Z,2064.00
2018-06-21T03:45:08.382Z,2128.00
2018-06-21T03:46:08.576Z,2200.00
2018-06-21T03:47:08.761Z,2276.00
2018-06-21T03:48:08.940Z,2364.00
2018-06-21T03:49:09.152Z,2464.00
2018-06-21T03:50:09.343Z,2576.00
2018-06-21T03:51:09.535Z,2696.00
2018-06-21T03:52:09.756Z,2820.00
2018-06-21T03:53:09.944Z,2952.00
2018-06-21T03:54:10.152Z,3072.00
2018-06-21T03:55:10.358Z,3224.00
2018-06-21T03:56:10.545Z,3372.00
2018-06-21T03:57:10.737Z,3484.00
2018-06-21T03:58:10.952Z,3576.00
2018-06-21T03:59:11.154Z,3672.00
2018-06-21T04:00:11.365Z,3852.00
2018-06-21T04:01:11.573Z,4144.00
2018-06-21T04:02:11.776Z,4740.00
2018-06-21T04:03:12.062Z,5684.00
2018-06-21T04:04:12.168Z,5856.00
2018-06-21T04:05:12.378Z,6340.00
2018-06-21T04:06:12.573Z,6880.00
2018-06-21T04:07:12.781Z,7552.00
2018-06-21T04:08:12.980Z,8124.00
2018-06-21T04:09:13.185Z,7336.00
2018-06-21T04:10:13.385Z,7896.00
2018-06-21T04:11:13.597Z,8600.00
2018-06-21T04:12:13.782Z,7076.00
2018-06-21T04:13:13.984Z,7844.00
2018-06-21T04:15:46.297Z,11020.00
2018-06-21T04:16:46.472Z,11288.00
2018-06-21T04:17:46.667Z,11572.00
2018-06-21T04:18:46.878Z,11248.00
2018-06-21T04:19:47.087Z,7536.00
2018-06-21T04:20:47.287Z,5532.00
2018-06-21T04:21:47.480Z,11220.00
2018-06-21T04:22:47.666Z,13632.00
2018-06-21T04:23:47.858Z,14176.00
2018-06-21T04:24:48.055Z,11156.00
2018-06-21T04:25:48.257Z,13856.00
2018-06-21T04:26:48.453Z,15136.00
2018-06-21T04:27:48.642Z,15136.00
2018-06-21T04:28:48.832Z,16896.00
2018-06-21T04:29:49.036Z,17248.00
2018-06-21T04:30:49.219Z,17312.00
2018-06-21T04:31:49.429Z,16928.00
2018-06-21T04:32:49.612Z,15968.00
2018-06-21T04:33:49.802Z,16736.00
2018-06-21T04:34:49.992Z,16960.00
2018-06-21T04:35:50.198Z,17152.00
2018-06-21T04:36:50.408Z,17184.00
2018-06-21T04:37:50.694Z,17408.00
2018-06-21T04:38:50.840Z,17824.00
2018-06-21T04:39:51.042Z,17984.00
2018-06-21T04:40:51.249Z,18144.00
2018-06-21T04:41:51.444Z,18752.00
2018-06-21T04:42:51.641Z,19232.00
2018-06-21T04:43:51.830Z,18752.00
2018-06-21T04:44:52.014Z,19168.00
2018-06-21T04:45:52.237Z,19840.00
2018-06-21T04:46:52.419Z,20032.00
2018-06-21T04:47:52.617Z,20064.00
2018-06-21T04:48:52.827Z,19968.00
2018-06-21T04:49:53.042Z,20160.00
2018-06-21T04:50:53.256Z,20576.00
2018-06-21T04:51:53.458Z,21472.00
2018-06-21T04:52:53.659Z,21632.00
2018-06-21T04:53:53.852Z,21952.00
2018-06-21T04:54:54.069Z,22624.00
2018-06-21T04:55:54.274Z,23072.00
2018-06-21T04:56:54.471Z,23872.00
2018-06-21T04:57:54.661Z,24608.00
2018-06-21T04:58:54.864Z,25248.00
2018-06-21T04:59:55.073Z,26112.00
2018-06-21T05:00:55.275Z,26432.00
2018-06-21T05:01:55.494Z,26336.00
2018-06-21T05:02:55.687Z,26624.00
2018-06-21T05:03:55.895Z,26560.00
2018-06-21T05:04:56.105Z,26592.00
2018-06-21T05:05:56.296Z,27008.00
2018-06-21T05:06:56.498Z,27776.00
2018-06-21T05:07:56.684Z,28320.00
2018-06-21T05:08:56.884Z,28704.00
2018-06-21T05:09:57.084Z,27968.00
2018-06-21T05:10:57.293Z,28032.00
2018-06-21T05:11:57.504Z,27424.00
2018-06-21T05:12:57.714Z,26624.00
2018-06-21T05:13:57.916Z,26240.00
2018-06-21T05:14:58.115Z,26688.00
2018-06-21T05:15:58.346Z,26848.00
2018-06-21T05:16:58.554Z,27904.00
2018-06-21T05:17:58.774Z,28320.00
2018-06-21T05:18:59.011Z,30016.00
2018-06-21T05:19:59.192Z,29856.00
2018-06-21T05:20:59.404Z,30624.00
2018-06-21T05:21:59.613Z,30272.00
2018-06-21T05:22:59.795Z,31936.00
2018-06-21T05:24:00.002Z,32384.00
2018-06-21T05:25:00.186Z,32608.00
2018-06-21T05:26:00.374Z,32960.00
2018-06-21T05:27:00.589Z,32896.00
2018-06-21T05:28:00.794Z,33312.00
2018-06-21T05:29:01.005Z,33632.00
2018-06-21T05:30:01.215Z,32704.00
2018-06-21T05:31:01.414Z,34144.00
2018-06-21T05:32:01.640Z,35264.00
2018-06-21T05:33:01.832Z,35456.00
2018-06-21T05:34:02.032Z,34048.00
2018-06-21T05:35:02.882Z,35488.00
2018-06-21T05:36:03.163Z,36352.00
2018-06-21T05:37:03.176Z,37568.00
2018-06-21T05:38:03.385Z,38496.00
2018-06-21T05:39:03.892Z,38656.00
2018-06-21T05:40:03.202Z,38464.00
2018-06-21T05:41:03.421Z,36736.00
2018-06-21T05:42:03.628Z,36832.00
2018-06-21T05:43:03.821Z,38560.00
2018-06-21T05:44:04.016Z,38464.00
2018-06-21T05:45:04.204Z,40288.00
2018-06-21T05:46:04.423Z,25440.00
2018-06-21T05:47:04.629Z,16992.00
2018-06-21T05:48:04.843Z,21632.00
2018-06-21T05:49:05.033Z,14464.00
2018-06-21T05:50:05.309Z,16000.00
2018-06-21T05:51:05.445Z,32800.00
2018-06-21T05:52:05.653Z,30080.00
2018-06-21T05:53:05.860Z,13924.00
2018-06-21T05:54:06.064Z,29216.00
2018-06-21T05:55:06.274Z,15116.00
2018-06-21T05:56:06.463Z,40352.00
2018-06-21T05:57:06.668Z,14092.00
2018-06-21T05:58:06.888Z,41344.00
2018-06-21T05:59:07.080Z,16064.00
2018-06-21T06:00:07.295Z,48480.00
2018-06-21T06:01:07.499Z,45984.00
2018-06-21T06:02:07.718Z,47648.00
2018-06-21T06:03:07.930Z,48736.00
2018-06-21T06:04:08.146Z,51552.00
2018-06-21T06:05:08.355Z,51840.00
2018-06-21T06:06:08.548Z,53312.00
2018-06-21T06:07:08.759Z,51424.00
2018-06-21T06:08:08.963Z,53408.00
2018-06-21T06:09:09.156Z,50496.00
2018-06-21T06:10:09.449Z,18048.00
2018-06-21T06:11:09.559Z,50368.00
2018-06-21T06:12:09.775Z,50208.00
2018-06-21T06:13:09.992Z,54592.00
2018-06-21T06:14:10.252Z,54432.00
2018-06-21T06:15:11.330Z,51680.00
2018-06-21T06:16:10.666Z,53184.00
2018-06-21T06:17:10.874Z,42176.00
2018-06-21T06:18:11.073Z,50080.00
2018-06-21T06:19:11.273Z,51680.00
2018-06-21T06:20:11.463Z,46240.00
2018-06-21T06:21:11.672Z,52704.00
2018-06-21T06:22:11.884Z,43392.00
2018-06-21T06:23:12.092Z,51456.00
2018-06-21T06:24:12.832Z,41120.00
2018-06-21T06:25:12.544Z,45664.00
2018-06-21T06:26:12.762Z,32000.00
2018-06-21T06:27:12.969Z,56512.00
2018-06-21T06:28:13.184Z,52064.00
2018-06-21T06:29:13.386Z,45664.00
2018-06-21T06:31:45.528Z,57472.00
2018-06-21T06:32:45.715Z,55296.00
2018-06-21T06:33:45.931Z,55616.00
2018-06-21T06:34:46.166Z,52672.00
2018-06-21T06:35:46.332Z,47264.00
2018-06-21T06:36:46.521Z,55648.00
2018-06-21T06:37:46.720Z,54176.00
2018-06-21T06:38:46.930Z,53184.00
2018-06-21T06:39:47.145Z,54624.00
2018-06-21T06:40:47.358Z,43456.00
2018-06-21T06:41:47.561Z,60352.00
2018-06-21T06:42:47.756Z,62912.00
2018-06-21T06:43:47.982Z,67392.00
2018-06-21T06:44:48.189Z,32704.00
2018-06-21T06:45:48.410Z,25728.00
2018-06-21T06:46:48.624Z,25696.00
2018-06-21T06:47:48.829Z,21504.00
2018-06-21T06:48:49.021Z,21568.00
2018-06-21T06:49:49.232Z,24384.00
2018-06-21T06:50:49.450Z,35008.00
2018-06-21T06:51:49.641Z,23392.00
2018-06-21T06:52:49.843Z,39296.00
2018-06-21T06:53:50.058Z,23808.00
2018-06-21T06:54:50.361Z,38944.00
2018-06-21T06:55:50.446Z,43744.00
2018-06-21T06:56:50.676Z,33824.00
2018-06-21T06:57:50.896Z,18912.00
2018-06-21T06:58:51.096Z,18464.00
2018-06-21T06:59:51.301Z,36672.00
2018-06-21T07:00:51.515Z,36480.00
2018-06-21T07:01:51.725Z,43552.00
2018-06-21T07:02:51.918Z,52736.00
2018-06-21T07:03:52.116Z,38624.00
2018-06-21T07:04:52.324Z,31520.00
2018-06-21T07:05:52.540Z,26368.00
2018-06-21T07:06:52.742Z,26880.00
2018-06-21T07:07:52.948Z,28704.00
2018-06-21T07:08:53.140Z,40224.00
2018-06-21T07:09:53.326Z,40800.00
2018-06-21T07:10:53.530Z,28320.00
2018-06-21T07:11:53.736Z,25824.00
2018-06-21T07:12:54.711Z,35904.00
2018-06-21T07:13:54.137Z,37504.00
2018-06-21T07:14:54.356Z,28864.00
2018-06-21T07:15:54.553Z,31968.00
2018-06-21T07:16:54.745Z,37344.00
2018-06-21T07:17:54.958Z,50464.00
2018-06-21T07:18:55.170Z,42432.00
2018-06-21T07:19:55.386Z,43808.00
2018-06-21T07:20:55.642Z,53664.00
2018-06-21T07:21:55.793Z,54240.00
2018-06-21T07:22:56.011Z,52384.00
2018-06-21T07:23:56.226Z,46400.00
2018-06-21T07:24:56.422Z,42464.00
2018-06-21T07:25:56.619Z,46816.00
2018-06-21T07:26:56.823Z,60416.00
2018-06-21T07:27:57.021Z,57856.00
2018-06-21T07:28:57.222Z,77600.00
2018-06-21T07:29:57.496Z,68480.00
2018-06-21T07:30:57.566Z,74176.00
2018-06-21T07:31:57.775Z,55328.00
2018-06-21T07:32:58.738Z,56128.00
2018-06-21T07:33:58.164Z,66336.00
2018-06-21T07:34:58.389Z,73216.00
2018-06-21T07:35:58.576Z,62656.00
2018-06-21T07:36:58.778Z,57472.00
2018-06-21T07:37:58.993Z,43776.00
2018-06-21T07:38:59.283Z,49952.00
2018-06-21T07:39:59.414Z,32928.00
2018-06-21T07:42:31.528Z,36608.00
2018-06-21T07:43:31.713Z,39904.00
2018-06-21T07:44:31.943Z,42624.00
2018-06-21T07:45:32.151Z,41792.00
2018-06-21T07:46:32.371Z,47392.00
2018-06-21T07:47:32.564Z,42304.00
2018-06-21T07:48:32.763Z,56640.00
2018-06-21T07:49:32.969Z,40416.00
2018-06-21T07:50:33.171Z,62304.00
2018-06-21T07:51:33.372Z,51296.00
2018-06-21T07:52:33.549Z,65600.00
2018-06-21T07:53:33.744Z,51392.00
2018-06-21T07:54:33.950Z,46880.00
2018-06-21T07:55:34.156Z,39520.00
2018-06-21T07:58:05.995Z,41856.00
2018-06-21T07:59:06.224Z,55392.00
2018-06-21T08:00:06.374Z,57504.00
2018-06-21T08:01:06.575Z,58848.00
2018-06-21T08:02:06.784Z,69856.00
2018-06-21T08:03:06.998Z,68992.00
2018-06-21T08:04:07.212Z,52096.00
2018-06-21T08:05:07.450Z,47616.00
2018-06-21T08:06:07.624Z,53600.00
2018-06-21T08:07:07.824Z,29920.00
2018-06-21T08:08:08.039Z,59616.00
2018-06-21T08:09:08.237Z,58464.00
2018-06-21T08:10:08.434Z,62208.00
2018-06-21T08:11:08.629Z,66304.00
2018-06-21T08:12:08.836Z,50784.00
2018-06-21T08:13:09.057Z,51008.00
2018-06-21T08:14:09.273Z,44896.00
2018-06-21T08:15:09.486Z,32288.00
2018-06-21T08:16:09.709Z,42752.00
2018-06-21T08:17:09.908Z,36544.00
2018-06-21T08:18:10.125Z,33504.00
2018-06-21T08:19:10.325Z,54816.00
2018-06-21T08:20:10.527Z,56320.00
2018-06-21T08:21:10.749Z,43904.00
2018-06-21T08:22:10.961Z,43840.00
2018-06-21T08:23:11.162Z,39104.00
2018-06-21T08:24:11.375Z,39072.00
2018-06-21T08:25:11.590Z,44384.00
2018-06-21T08:26:11.801Z,54208.00
2018-06-21T08:27:11.997Z,55840.00
2018-06-21T08:28:12.211Z,42464.00
2018-06-21T08:29:12.411Z,37472.00
2018-06-21T08:30:13.483Z,30816.00
2018-06-21T08:31:12.807Z,34400.00
2018-06-21T08:32:13.082Z,32640.00
2018-06-21T08:33:13.985Z,37728.00
2018-06-21T08:34:13.409Z,57728.00
2018-06-21T08:35:13.620Z,55712.00
2018-06-21T08:36:13.813Z,47072.00
2018-06-21T08:37:14.022Z,37952.00
2018-06-21T08:38:14.235Z,32192.00
2018-06-21T08:39:14.453Z,23104.00
2018-06-21T08:40:14.671Z,21440.00
2018-06-21T08:41:14.886Z,24960.00
2018-06-21T08:42:15.078Z,20864.00
2018-06-21T08:43:15.289Z,30240.00
2018-06-21T08:44:15.493Z,22784.00
2018-06-21T08:45:15.694Z,18912.00
2018-06-21T08:46:15.902Z,19680.00
2018-06-21T08:47:16.098Z,19744.00
2018-06-21T08:48:16.314Z,21824.00
2018-06-21T08:49:16.515Z,33312.00
2018-06-21T08:50:16.718Z,28480.00
2018-06-21T08:51:16.969Z,21312.00
2018-06-21T08:52:17.175Z,19136.00
2018-06-21T08:53:17.400Z,17120.00
2018-06-21T08:54:17.616Z,16800.00
2018-06-21T08:55:17.823Z,19040.00
2018-06-21T08:56:18.021Z,20096.00
2018-06-21T08:57:18.220Z,15808.00
2018-06-21T08:58:18.428Z,13556.00
2018-06-21T08:59:18.625Z,11256.00
2018-06-21T09:00:18.827Z,9076.00
2018-06-21T09:01:19.043Z,7244.00
2018-06-21T09:02:19.259Z,5524.00
2018-06-21T09:03:19.453Z,4608.00
2018-06-21T09:04:19.671Z,4592.00
2018-06-21T09:05:19.880Z,5176.00
2018-06-21T09:06:20.067Z,5504.00
2018-06-21T09:07:20.269Z,5464.00
2018-06-21T09:08:20.485Z,5284.00
2018-06-21T09:09:20.689Z,4940.00
2018-06-21T09:10:20.905Z,4248.00
2018-06-21T09:11:21.114Z,4140.00
2018-06-21T09:12:21.329Z,4328.00
2018-06-21T09:13:21.559Z,4120.00
2018-06-21T09:14:21.776Z,3772.00
2018-06-21T09:15:21.973Z,4196.00
2018-06-21T09:16:22.159Z,3160.00
2018-06-21T09:17:22.349Z,2956.00
2018-06-21T09:18:22.555Z,4288.00
2018-06-21T09:19:22.771Z,5664.00
2018-06-21T09:20:22.984Z,7192.00
2018-06-21T09:21:23.206Z,7880.00
2018-06-21T09:22:23.418Z,8808.00
2018-06-21T09:23:23.634Z,14160.00
2018-06-21T09:24:23.844Z,11916.00
2018-06-21T09:25:24.042Z,12344.00
2018-06-21T09:26:24.279Z,13764.00
2018-06-21T09:28:56.684Z,19840.00
2018-06-21T09:29:56.610Z,55488.00
2018-06-21T09:30:56.813Z,42112.00
2018-06-21T09:31:57.007Z,19968.00
2018-06-21T09:32:57.219Z,36768.00
2018-06-21T09:33:57.420Z,27456.00
2018-06-21T09:34:57.673Z,56192.00
2018-06-21T09:35:57.892Z,22912.00
2018-06-21T09:36:58.110Z,16320.00
2018-06-21T09:37:58.311Z,13108.00
2018-06-21T09:38:58.531Z,11968.00
2018-06-21T09:39:58.735Z,8524.00
2018-06-21T09:40:58.940Z,7208.00
2018-06-21T09:41:59.193Z,6824.00
2018-06-21T09:42:59.355Z,6576.00
2018-06-21T09:44:03.831Z,6508.00
2018-06-21T09:44:59.762Z,6560.00
2018-06-21T09:45:59.982Z,5984.00
2018-06-21T09:47:00.219Z,5352.00
2018-06-21T09:48:00.382Z,5512.00
2018-06-21T09:49:00.595Z,6316.00
2018-06-21T09:50:00.795Z,8568.00
2018-06-21T09:51:01.016Z,11044.00
2018-06-21T09:52:01.226Z,12184.00
2018-06-21T09:53:01.433Z,10768.00
2018-06-21T09:54:01.628Z,10356.00
2018-06-21T09:55:01.833Z,10760.00
2018-06-21T09:56:02.007Z,10948.00
2018-06-21T09:57:02.228Z,11260.00
2018-06-21T09:58:02.431Z,11712.00
2018-06-21T09:59:02.632Z,11804.00
2018-06-21T10:00:02.843Z,11636.00
2018-06-21T10:01:03.057Z,11392.00
2018-06-21T10:02:03.278Z,11164.00
2018-06-21T10:03:03.489Z,11148.00
2018-06-21T10:04:03.693Z,11812.00
2018-06-21T10:05:03.902Z,11244.00
2018-06-21T10:06:04.095Z,9824.00
2018-06-21T10:07:04.342Z,9116.00
2018-06-21T10:08:04.510Z,8684.00
2018-06-21T10:09:04.732Z,8896.00
2018-06-21T10:10:04.949Z,10204.00
2018-06-21T10:11:05.183Z,12320.00
2018-06-21T10:12:05.400Z,14752.00
2018-06-21T10:13:05.594Z,13748.00
2018-06-21T10:14:05.800Z,13396.00
2018-06-21T10:15:06.015Z,11968.00
2018-06-21T10:17:37.856Z,4132.00
2018-06-21T10:18:38.036Z,3272.00
2018-06-21T10:19:38.242Z,4408.00
2018-06-21T10:20:38.456Z,5240.00
2018-06-21T10:21:38.645Z,5484.00
2018-06-21T10:22:38.852Z,6556.00
2018-06-21T10:23:39.058Z,8444.00
2018-06-21T10:24:39.264Z,9724.00
2018-06-21T10:25:39.474Z,9620.00
2018-06-21T10:26:39.671Z,7780.00
2018-06-21T10:27:39.862Z,6572.00
2018-06-21T10:28:40.073Z,6272.00
2018-06-21T10:29:40.292Z,6564.00
2018-06-21T10:30:40.492Z,6324.00
2018-06-21T10:31:40.687Z,6556.00
2018-06-21T10:32:40.890Z,8660.00
2018-06-21T10:33:41.080Z,7836.00
2018-06-21T10:34:41.271Z,7932.00
2018-06-21T10:37:13.382Z,8212.00
2018-06-21T10:38:13.563Z,8312.00
2018-06-21T10:39:13.779Z,9236.00
2018-06-21T10:40:13.970Z,10528.00
2018-06-21T10:41:14.167Z,10656.00
2018-06-21T10:42:14.369Z,9576.00
2018-06-21T10:43:14.565Z,8876.00
2018-06-21T10:44:14.759Z,8512.00
2018-06-21T10:45:14.968Z,8836.00
2018-06-21T10:46:15.159Z,9052.00
2018-06-21T10:47:15.356Z,8868.00
2018-06-21T10:48:15.553Z,9288.00
2018-06-21T10:49:15.763Z,9972.00
2018-06-21T10:50:15.939Z,9824.00
2018-06-21T10:51:16.140Z,9116.00
2018-06-21T10:52:16.349Z,8476.00
2018-06-21T10:53:16.544Z,8420.00
2018-06-21T10:54:16.758Z,8352.00
2018-06-21T10:55:16.958Z,8288.00
2018-06-21T10:56:17.154Z,8412.00
2018-06-21T10:57:17.361Z,8636.00
2018-06-21T10:58:17.574Z,10076.00
2018-06-21T10:59:17.758Z,11416.00
2018-06-21T11:00:17.962Z,12844.00
2018-06-21T11:01:18.174Z,15712.00
2018-06-21T11:02:18.387Z,21216.00
2018-06-21T11:03:18.650Z,25504.00
2018-06-21T11:04:18.803Z,30240.00
2018-06-21T11:05:19.019Z,28032.00
2018-06-21T11:06:19.236Z,29472.00
2018-06-21T11:07:19.459Z,34688.00
2018-06-21T11:09:51.724Z,30720.00
2018-06-21T11:10:51.774Z,29376.00
2018-06-21T11:11:51.982Z,27200.00
2018-06-21T11:12:52.200Z,26592.00
2018-06-21T11:13:52.393Z,25344.00
2018-06-21T11:14:52.670Z,24256.00
2018-06-21T11:15:52.811Z,20608.00
2018-06-21T11:16:53.050Z,22176.00
2018-06-21T11:17:53.230Z,23808.00
2018-06-21T11:18:53.442Z,20992.00
2018-06-21T11:19:53.626Z,23584.00
2018-06-21T11:20:53.834Z,24896.00
2018-06-21T11:21:54.048Z,26048.00
2018-06-21T11:22:54.257Z,26400.00
2018-06-21T11:23:54.458Z,25184.00
2018-06-21T11:24:54.671Z,24256.00
2018-06-21T11:25:54.882Z,22272.00
2018-06-21T11:26:55.105Z,22784.00
2018-06-21T11:27:55.367Z,21120.00
2018-06-21T11:28:55.527Z,21824.00
2018-06-21T11:29:55.737Z,21600.00
2018-06-21T11:30:55.952Z,21600.00
2018-06-21T11:31:56.153Z,20352.00
2018-06-21T11:32:56.370Z,20736.00
2018-06-21T11:33:56.592Z,24288.00
2018-06-21T11:34:56.819Z,26400.00
2018-06-21T11:35:56.995Z,26080.00
2018-06-21T11:36:57.208Z,25728.00
2018-06-21T11:37:57.420Z,28928.00
2018-06-21T11:38:57.634Z,27136.00
2018-06-21T11:39:57.847Z,26880.00
2018-06-21T11:40:58.063Z,25632.00
2018-06-21T11:41:58.286Z,24320.00
2018-06-21T11:42:58.502Z,24800.00
2018-06-21T11:43:58.727Z,24480.00
2018-06-21T11:44:58.936Z,23680.00
2018-06-21T11:45:59.137Z,22528.00
2018-06-21T11:46:59.339Z,21984.00
2018-06-21T11:47:59.526Z,21216.00
2018-06-21T11:48:59.741Z,20768.00
2018-06-21T11:49:59.935Z,20288.00
2018-06-21T11:51:00.148Z,19840.00
2018-06-21T11:52:00.348Z,19392.00
2018-06-21T11:53:00.551Z,17952.00
2018-06-21T11:54:00.747Z,22112.00
2018-06-21T11:55:00.944Z,21120.00
2018-06-21T11:56:01.156Z,19008.00
2018-06-21T11:57:01.369Z,18016.00
2018-06-21T11:58:01.588Z,19328.00
2018-06-21T11:59:01.786Z,18336.00
2018-06-21T12:00:01.993Z,19552.00
2018-06-21T12:01:02.190Z,19296.00
2018-06-21T12:02:02.415Z,20928.00
2018-06-21T12:03:02.625Z,18208.00
2018-06-21T12:04:02.853Z,19104.00
2018-06-21T12:05:03.062Z,18688.00
2018-06-21T12:06:03.331Z,18144.00
2018-06-21T12:07:03.424Z,18336.00
2018-06-21T12:08:03.613Z,18752.00
2018-06-21T12:09:03.827Z,18240.00
2018-06-21T12:10:04.048Z,17344.00
2018-06-21T12:11:04.253Z,16128.00
2018-06-21T12:12:04.456Z,15200.00
2018-06-21T12:13:04.656Z,14368.00
2018-06-21T12:14:04.861Z,13632.00
2018-06-21T12:15:05.084Z,13068.00
2018-06-21T12:16:05.296Z,12628.00
2018-06-21T12:17:05.502Z,12292.00
2018-06-21T12:18:05.717Z,10952.00
2018-06-21T12:19:05.920Z,12888.00
2018-06-21T12:20:06.114Z,12916.00
2018-06-21T12:21:06.328Z,12676.00
2018-06-21T12:22:06.510Z,12492.00
2018-06-21T12:23:06.723Z,12180.00
2018-06-21T12:24:06.924Z,10796.00
2018-06-21T12:25:07.132Z,11120.00
2018-06-21T12:26:07.370Z,11576.00
2018-06-21T12:27:07.537Z,11620.00
2018-06-21T12:28:07.757Z,11672.00
2018-06-21T12:29:07.953Z,11936.00
2018-06-21T12:30:08.130Z,12436.00